sensor_id;sensor_type;location;lat;lon;timestamp;P1;durP1;ratioP1;P2;durP2;ratioP2
9280;SDS011;4679;47.966;7.958;2022-08-16T05:54:55;5.30;;;4.90;;
9280;SDS011;4679;47.966;7.958;2022-08-16T05:56:57;5.73;;;5.07;;
9280;SDS011;4679;47.966;7.958;2022-08-16T05:58:58;5.43;;;4.80;;
9280;SDS011;4679;47.966;7.958;2022-08-16T06:01:00;5.07;;;4.70;;
9280;SDS011;4679;47.966;7.958;2022-08-16T06:03:02;4.27;;;3.97;;
9280;SDS011;4679;47.966;7.958;2022-08-16T06:05:04;5.00;;;4.10;;
9280;SDS011;4679;47.966;7.958;2022-08-16T06:07:07;4.87;;;4.50;;
9280;SDS011;4679;47.966;7.958;2022-08-16T06:09:09;6.17;;;4.03;;
9280;SDS011;4679;47.966;7.958;2022-08-16T06:11:13;6.20;;;3.83;;
9280;SDS011;4679;47.966;7.958;2022-08-16T06:13:15;4.53;;;3.10;;
9280;SDS011;4679;47.966;7.958;2022-08-16T06:15:18;4.57;;;4.10;;
9280;SDS011;4679;47.966;7.958;2022-08-16T06:17:21;4.40;;;4.07;;
9280;SDS011;4679;47.966;7.958;2022-08-16T06:19:23;4.07;;;3.77;;
9280;SDS011;4679;47.966;7.958;2022-08-16T06:21:25;4.13;;;3.70;;
9280;SDS011;4679;47.966;7.958;2022-08-16T06:23:27;3.97;;;3.53;;
9280;SDS011;4679;47.966;7.958;2022-08-16T06:25:28;4.20;;;3.87;;
9280;SDS011;4679;47.966;7.958;2022-08-16T06:27:33;4.03;;;3.73;;
9280;SDS011;4679;47.966;7.958;2022-08-16T06:29:34;4.30;;;4.00;;
9280;SDS011;4679;47.966;7.958;2022-08-16T06:31:36;7.63;;;6.33;;
9280;SDS011;4679;47.966;7.958;2022-08-16T06:33:38;4.03;;;3.73;;
9280;SDS011;4679;47.966;7.958;2022-08-16T06:35:40;4.67;;;4.27;;
9280;SDS011;4679;47.966;7.958;2022-08-16T06:37:42;4.80;;;4.50;;
9280;SDS011;4679;47.966;7.958;2022-08-16T06:39:44;4.07;;;3.73;;
9280;SDS011;4679;47.966;7.958;2022-08-16T06:41:45;3.97;;;3.77;;
9280;SDS011;4679;47.966;7.958;2022-08-16T06:43:49;4.40;;;4.10;;
9280;SDS011;4679;47.966;7.958;2022-08-16T06:45:50;4.50;;;4.20;;
9280;SDS011;4679;47.966;7.958;2022-08-16T06:47:53;4.63;;;4.33;;
9280;SDS011;4679;47.966;7.958;2022-08-16T06:49:54;3.77;;;3.50;;
9280;SDS011;4679;47.966;7.958;2022-08-16T06:51:56;4.83;;;4.37;;
9280;SDS011;4679;47.966;7.958;2022-08-16T06:53:58;4.07;;;3.80;;
9280;SDS011;4679;47.966;7.958;2022-08-16T06:56:00;3.97;;;3.67;;
9280;SDS011;4679;47.966;7.958;2022-08-16T06:58:05;4.83;;;4.00;;
9280;SDS011;4679;47.966;7.958;2022-08-16T07:00:10;3.50;;;3.20;;
9280;SDS011;4679;47.966;7.958;2022-08-16T07:02:13;4.07;;;3.43;;
9280;SDS011;4679;47.966;7.958;2022-08-16T07:04:16;3.97;;;3.70;;
9280;SDS011;4679;47.966;7.958;2022-08-16T07:06:18;3.10;;;2.80;;
9280;SDS011;4679;47.966;7.958;2022-08-16T07:08:21;3.90;;;3.30;;
9280;SDS011;4679;47.966;7.958;2022-08-16T07:10:24;3.50;;;3.30;;
9280;SDS011;4679;47.966;7.958;2022-08-16T07:12:26;3.63;;;3.43;;
9280;SDS011;4679;47.966;7.958;2022-08-16T07:14:28;4.67;;;3.47;;
9280;SDS011;4679;47.966;7.958;2022-08-16T07:16:31;3.17;;;2.97;;
9280;SDS011;4679;47.966;7.958;2022-08-16T07:18:33;3.70;;;3.33;;
9280;SDS011;4679;47.966;7.958;2022-08-16T07:20:35;3.33;;;3.03;;
9280;SDS011;4679;47.966;7.958;2022-08-16T07:22:37;4.00;;;3.80;;
9280;SDS011;4679;47.966;7.958;2022-08-16T07:24:39;3.30;;;3.03;;
9280;SDS011;4679;47.966;7.958;2022-08-16T07:26:40;3.73;;;3.53;;
9280;SDS011;4679;47.966;7.958;2022-08-16T07:28:42;3.07;;;2.87;;
9280;SDS011;4679;47.966;7.958;2022-08-16T07:30:44;4.80;;;3.80;;
9280;SDS011;4679;47.966;7.958;2022-08-16T07:32:48;4.17;;;3.20;;
9280;SDS011;4679;47.966;7.958;2022-08-16T07:34:50;3.20;;;3.00;;
9280;SDS011;4679;47.966;7.958;2022-08-16T07:36:52;5.77;;;3.13;;
9280;SDS011;4679;47.966;7.958;2022-08-16T07:38:54;3.27;;;2.97;;
9280;SDS011;4679;47.966;7.958;2022-08-16T07:40:56;5.90;;;2.80;;
9280;SDS011;4679;47.966;7.958;2022-08-16T07:42:58;5.43;;;3.97;;
9280;SDS011;4679;47.966;7.958;2022-08-16T07:45:00;3.50;;;3.10;;
9280;SDS011;4679;47.966;7.958;2022-08-16T07:47:02;3.87;;;2.80;;
9280;SDS011;4679;47.966;7.958;2022-08-16T07:49:05;3.17;;;2.87;;
9280;SDS011;4679;47.966;7.958;2022-08-16T07:51:08;4.43;;;2.60;;
9280;SDS011;4679;47.966;7.958;2022-08-16T07:53:10;2.93;;;2.73;;
9280;SDS011;4679;47.966;7.958;2022-08-16T07:55:13;2.67;;;2.57;;
9280;SDS011;4679;47.966;7.958;2022-08-16T07:57:16;4.17;;;3.00;;
9280;SDS011;4679;47.966;7.958;2022-08-16T07:59:17;3.13;;;2.90;;
9280;SDS011;4679;47.966;7.958;2022-08-16T08:01:19;3.40;;;3.13;;
9280;SDS011;4679;47.966;7.958;2022-08-16T08:03:22;3.50;;;2.90;;
9280;SDS011;4679;47.966;7.958;2022-08-16T08:05:26;5.93;;;3.10;;
9280;SDS011;4679;47.966;7.958;2022-08-16T08:07:28;2.60;;;2.40;;
9280;SDS011;4679;47.966;7.958;2022-08-16T08:09:30;3.43;;;3.13;;
9280;SDS011;4679;47.966;7.958;2022-08-16T08:11:32;3.53;;;2.70;;
9280;SDS011;4679;47.966;7.958;2022-08-16T08:13:34;3.25;;;2.35;;
9280;SDS011;4679;47.966;7.958;2022-08-16T08:15:35;2.80;;;2.60;;
9280;SDS011;4679;47.966;7.958;2022-08-16T08:17:37;4.45;;;3.15;;
9280;SDS011;4679;47.966;7.958;2022-08-16T08:19:39;2.45;;;2.33;;
9280;SDS011;4679;47.966;7.958;2022-08-16T08:21:42;3.00;;;2.55;;
9280;SDS011;4679;47.966;7.958;2022-08-16T08:23:46;3.13;;;2.25;;
9280;SDS011;4679;47.966;7.958;2022-08-16T08:25:48;2.60;;;2.40;;
9280;SDS011;4679;47.966;7.958;2022-08-16T08:27:50;3.55;;;2.15;;
9280;SDS011;4679;47.966;7.958;2022-08-16T08:29:52;3.25;;;2.38;;
9280;SDS011;4679;47.966;7.958;2022-08-16T08:31:53;3.63;;;2.28;;
9280;SDS011;4679;47.966;7.958;2022-08-16T08:33:55;4.10;;;2.58;;
9280;SDS011;4679;47.966;7.958;2022-08-16T08:35:59;5.13;;;2.30;;
9280;SDS011;4679;47.966;7.958;2022-08-16T08:38:05;4.03;;;2.53;;
9280;SDS011;4679;47.966;7.958;2022-08-16T08:40:09;3.08;;;2.22;;
9280;SDS011;4679;47.966;7.958;2022-08-16T08:42:12;2.97;;;2.78;;
9280;SDS011;4679;47.966;7.958;2022-08-16T08:44:14;5.88;;;2.40;;
9280;SDS011;4679;47.966;7.958;2022-08-16T08:46:16;3.50;;;2.53;;
9280;SDS011;4679;47.966;7.958;2022-08-16T08:48:18;3.60;;;2.22;;
9280;SDS011;4679;47.966;7.958;2022-08-16T08:50:21;2.53;;;2.33;;
9280;SDS011;4679;47.966;7.958;2022-08-16T08:52:23;3.00;;;2.13;;
9280;SDS011;4679;47.966;7.958;2022-08-16T08:54:26;4.43;;;2.60;;
9280;SDS011;4679;47.966;7.958;2022-08-16T08:56:28;2.47;;;2.38;;
9280;SDS011;4679;47.966;7.958;2022-08-16T08:58:32;2.97;;;2.40;;
9280;SDS011;4679;47.966;7.958;2022-08-16T09:00:35;2.53;;;2.33;;
9280;SDS011;4679;47.966;7.958;2022-08-16T09:02:38;2.70;;;2.35;;
9280;SDS011;4679;47.966;7.958;2022-08-16T09:04:40;2.72;;;2.00;;
9280;SDS011;4679;47.966;7.958;2022-08-16T09:06:42;2.35;;;2.13;;
9280;SDS011;4679;47.966;7.958;2022-08-16T09:08:44;2.38;;;2.17;;
9280;SDS011;4679;47.966;7.958;2022-08-16T09:10:47;3.70;;;2.05;;
9280;SDS011;4679;47.966;7.958;2022-08-16T09:12:49;2.05;;;1.90;;
9280;SDS011;4679;47.966;7.958;2022-08-16T09:14:50;3.33;;;1.88;;
9280;SDS011;4679;47.966;7.958;2022-08-16T09:16:52;3.45;;;1.90;;
9280;SDS011;4679;47.966;7.958;2022-08-16T09:18:54;2.20;;;2.00;;
9280;SDS011;4679;47.966;7.958;2022-08-16T09:20:56;2.22;;;1.85;;
9280;SDS011;4679;47.966;7.958;2022-08-16T09:22:58;5.03;;;2.47;;
9280;SDS011;4679;47.966;7.958;2022-08-16T09:25:01;2.28;;;2.08;;
9280;SDS011;4679;47.966;7.958;2022-08-16T09:27:05;2.38;;;2.17;;
9280;SDS011;4679;47.966;7.958;2022-08-16T09:29:06;2.60;;;1.90;;
9280;SDS011;4679;47.966;7.958;2022-08-16T09:31:08;4.10;;;1.90;;
9280;SDS011;4679;47.966;7.958;2022-08-16T09:33:11;1.80;;;1.70;;
9280;SDS011;4679;47.966;7.958;2022-08-16T09:35:17;2.67;;;1.85;;
9280;SDS011;4679;47.966;7.958;2022-08-16T09:37:19;4.00;;;1.90;;
9280;SDS011;4679;47.966;7.958;2022-08-16T09:39:20;2.28;;;1.98;;
9280;SDS011;4679;47.966;7.958;2022-08-16T09:41:22;2.85;;;2.42;;
9280;SDS011;4679;47.966;7.958;2022-08-16T09:43:25;3.03;;;1.88;;
9280;SDS011;4679;47.966;7.958;2022-08-16T09:45:27;3.80;;;1.77;;
9280;SDS011;4679;47.966;7.958;2022-08-16T09:47:30;2.45;;;1.67;;
9280;SDS011;4679;47.966;7.958;2022-08-16T09:49:31;2.05;;;1.50;;
9280;SDS011;4679;47.966;7.958;2022-08-16T09:51:33;2.10;;;1.88;;
9280;SDS011;4679;47.966;7.958;2022-08-16T09:53:36;2.08;;;1.88;;
9280;SDS011;4679;47.966;7.958;2022-08-16T09:55:38;3.42;;;1.80;;
9280;SDS011;4679;47.966;7.958;2022-08-16T09:57:40;2.78;;;2.25;;
9280;SDS011;4679;47.966;7.958;2022-08-16T09:59:43;2.63;;;2.13;;
9280;SDS011;4679;47.966;7.958;2022-08-16T10:01:45;3.50;;;2.30;;
9280;SDS011;4679;47.966;7.958;2022-08-16T10:03:47;1.92;;;1.70;;
9280;SDS011;4679;47.966;7.958;2022-08-16T10:05:49;1.70;;;1.60;;
9280;SDS011;4679;47.966;7.958;2022-08-16T10:07:51;2.38;;;1.70;;
9280;SDS011;4679;47.966;7.958;2022-08-16T10:09:53;3.63;;;1.73;;
9280;SDS011;4679;47.966;7.958;2022-08-16T10:11:54;4.75;;;1.75;;
9280;SDS011;4679;47.966;7.958;2022-08-16T10:14:13;2.97;;;1.58;;
9280;SDS011;4679;47.966;7.958;2022-08-16T10:16:17;1.67;;;1.58;;
9280;SDS011;4679;47.966;7.958;2022-08-16T10:18:18;1.92;;;1.80;;
9280;SDS011;4679;47.966;7.958;2022-08-16T10:20:21;2.38;;;1.80;;
9280;SDS011;4679;47.966;7.958;2022-08-16T10:22:24;2.35;;;1.65;;
9280;SDS011;4679;47.966;7.958;2022-08-16T10:24:27;6.68;;;2.00;;
9280;SDS011;4679;47.966;7.958;2022-08-16T10:26:28;2.38;;;1.63;;
9280;SDS011;4679;47.966;7.958;2022-08-16T10:28:33;2.95;;;1.75;;
9280;SDS011;4679;47.966;7.958;2022-08-16T10:30:35;3.17;;;1.83;;
9280;SDS011;4679;47.966;7.958;2022-08-16T10:32:39;3.83;;;1.80;;
9280;SDS011;4679;47.966;7.958;2022-08-16T10:34:41;2.25;;;1.98;;
9280;SDS011;4679;47.966;7.958;2022-08-16T10:36:43;2.17;;;1.80;;
9280;SDS011;4679;47.966;7.958;2022-08-16T10:38:44;2.83;;;1.60;;
9280;SDS011;4679;47.966;7.958;2022-08-16T10:40:46;2.15;;;1.92;;
9280;SDS011;4679;47.966;7.958;2022-08-16T10:42:48;2.00;;;1.50;;
9280;SDS011;4679;47.966;7.958;2022-08-16T10:44:50;2.38;;;2.03;;
9280;SDS011;4679;47.966;7.958;2022-08-16T10:46:52;2.17;;;1.77;;
9280;SDS011;4679;47.966;7.958;2022-08-16T10:48:55;3.25;;;1.70;;
9280;SDS011;4679;47.966;7.958;2022-08-16T10:50:57;4.15;;;1.73;;
9280;SDS011;4679;47.966;7.958;2022-08-16T10:52:59;1.75;;;1.60;;
9280;SDS011;4679;47.966;7.958;2022-08-16T10:55:06;1.63;;;1.52;;
9280;SDS011;4679;47.966;7.958;2022-08-16T10:57:09;1.50;;;1.40;;
9280;SDS011;4679;47.966;7.958;2022-08-16T10:59:10;4.15;;;1.60;;
9280;SDS011;4679;47.966;7.958;2022-08-16T11:01:12;3.63;;;1.75;;
9280;SDS011;4679;47.966;7.958;2022-08-16T11:03:15;2.22;;;1.40;;
9280;SDS011;4679;47.966;7.958;2022-08-16T11:05:18;2.92;;;1.90;;
9280;SDS011;4679;47.966;7.958;2022-08-16T11:07:20;1.95;;;1.85;;
9280;SDS011;4679;47.966;7.958;2022-08-16T11:09:21;1.67;;;1.48;;
9280;SDS011;4679;47.966;7.958;2022-08-16T11:11:23;2.92;;;1.83;;
9280;SDS011;4679;47.966;7.958;2022-08-16T11:13:25;1.70;;;1.60;;
9280;SDS011;4679;47.966;7.958;2022-08-16T11:15:28;1.40;;;1.30;;
9280;SDS011;4679;47.966;7.958;2022-08-16T11:17:30;1.52;;;1.42;;
9280;SDS011;4679;47.966;7.958;2022-08-16T11:19:32;2.63;;;1.40;;
9280;SDS011;4679;47.966;7.958;2022-08-16T11:21:35;1.98;;;1.50;;
9280;SDS011;4679;47.966;7.958;2022-08-16T11:23:37;1.67;;;1.58;;
9280;SDS011;4679;47.966;7.958;2022-08-16T11:25:38;2.88;;;1.45;;
9280;SDS011;4679;47.966;7.958;2022-08-16T11:27:41;2.22;;;1.60;;
9280;SDS011;4679;47.966;7.958;2022-08-16T11:29:44;1.70;;;1.60;;
9280;SDS011;4679;47.966;7.958;2022-08-16T11:31:46;2.10;;;1.67;;
9280;SDS011;4679;47.966;7.958;2022-08-16T11:33:49;1.88;;;1.70;;
9280;SDS011;4679;47.966;7.958;2022-08-16T11:35:51;2.58;;;1.50;;
9280;SDS011;4679;47.966;7.958;2022-08-16T11:37:55;1.60;;;1.50;;
9280;SDS011;4679;47.966;7.958;2022-08-16T11:39:59;1.40;;;1.30;;
9280;SDS011;4679;47.966;7.958;2022-08-16T11:42:02;1.85;;;1.50;;
9280;SDS011;4679;47.966;7.958;2022-08-16T11:44:04;2.78;;;1.80;;
9280;SDS011;4679;47.966;7.958;2022-08-16T11:46:07;1.40;;;1.30;;
9280;SDS011;4679;47.966;7.958;2022-08-16T11:48:10;2.05;;;1.60;;
9280;SDS011;4679;47.966;7.958;2022-08-16T11:50:13;2.67;;;1.40;;
9280;SDS011;4679;47.966;7.958;2022-08-16T11:52:16;1.73;;;1.63;;
9280;SDS011;4679;47.966;7.958;2022-08-16T11:54:19;1.95;;;1.42;;
9280;SDS011;4679;47.966;7.958;2022-08-16T11:56:21;1.63;;;1.52;;
9280;SDS011;4679;47.966;7.958;2022-08-16T11:58:23;1.77;;;1.58;;
9280;SDS011;4679;47.966;7.958;2022-08-16T12:00:27;2.22;;;1.60;;
9280;SDS011;4679;47.966;7.958;2022-08-16T12:02:31;3.63;;;1.50;;
9280;SDS011;4679;47.966;7.958;2022-08-16T12:04:33;2.08;;;1.40;;
9280;SDS011;4679;47.966;7.958;2022-08-16T12:06:35;2.42;;;1.35;;
9280;SDS011;4679;47.966;7.958;2022-08-16T12:08:38;2.63;;;1.58;;
9280;SDS011;4679;47.966;7.958;2022-08-16T12:10:41;2.15;;;1.50;;
9280;SDS011;4679;47.966;7.958;2022-08-16T12:12:44;2.00;;;1.33;;
9280;SDS011;4679;47.966;7.958;2022-08-16T12:14:47;1.60;;;1.50;;
9280;SDS011;4679;47.966;7.958;2022-08-16T12:16:49;3.53;;;1.60;;
9280;SDS011;4679;47.966;7.958;2022-08-16T12:18:51;1.75;;;1.50;;
9280;SDS011;4679;47.966;7.958;2022-08-16T12:20:53;1.60;;;1.50;;
9280;SDS011;4679;47.966;7.958;2022-08-16T12:22:55;1.25;;;1.17;;
9280;SDS011;4679;47.966;7.958;2022-08-16T12:24:57;1.25;;;1.15;;
9280;SDS011;4679;47.966;7.958;2022-08-16T12:27:00;3.72;;;1.45;;
9280;SDS011;4679;47.966;7.958;2022-08-16T12:29:03;2.47;;;1.30;;
9280;SDS011;4679;47.966;7.958;2022-08-16T12:31:05;2.97;;;1.48;;
9280;SDS011;4679;47.966;7.958;2022-08-16T12:33:08;2.13;;;1.50;;
9280;SDS011;4679;47.966;7.958;2022-08-16T12:35:13;2.17;;;1.48;;
9280;SDS011;4679;47.966;7.958;2022-08-16T12:37:18;2.20;;;1.80;;
9280;SDS011;4679;47.966;7.958;2022-08-16T12:39:20;2.80;;;1.70;;
9280;SDS011;4679;47.966;7.958;2022-08-16T12:41:22;2.15;;;1.92;;
9280;SDS011;4679;47.966;7.958;2022-08-16T12:43:25;1.50;;;1.40;;
9280;SDS011;4679;47.966;7.958;2022-08-16T12:45:28;1.58;;;1.40;;
9280;SDS011;4679;47.966;7.958;2022-08-16T12:47:33;1.50;;;1.40;;
9280;SDS011;4679;47.966;7.958;2022-08-16T12:49:52;1.50;;;1.40;;
9280;SDS011;4679;47.966;7.958;2022-08-16T12:51:54;4.35;;;1.40;;
9280;SDS011;4679;47.966;7.958;2022-08-16T12:53:56;1.27;;;1.20;;
9280;SDS011;4679;47.966;7.958;2022-08-16T12:55:59;1.85;;;1.30;;
9280;SDS011;4679;47.966;7.958;2022-08-16T12:58:01;2.40;;;1.30;;
9280;SDS011;4679;47.966;7.958;2022-08-16T13:00:06;1.52;;;1.20;;
9280;SDS011;4679;47.966;7.958;2022-08-16T13:02:12;2.10;;;1.23;;
9280;SDS011;4679;47.966;7.958;2022-08-16T13:04:14;1.52;;;1.42;;
9280;SDS011;4679;47.966;7.958;2022-08-16T13:06:16;1.83;;;1.20;;
9280;SDS011;4679;47.966;7.958;2022-08-16T13:08:18;2.55;;;1.48;;
9280;SDS011;4679;47.966;7.958;2022-08-16T13:10:19;1.40;;;1.40;;
9280;SDS011;4679;47.966;7.958;2022-08-16T13:12:22;1.60;;;1.50;;
9280;SDS011;4679;47.966;7.958;2022-08-16T13:14:28;1.33;;;1.23;;
9280;SDS011;4679;47.966;7.958;2022-08-16T13:16:34;5.03;;;1.50;;
9280;SDS011;4679;47.966;7.958;2022-08-16T13:18:37;2.20;;;1.30;;
9280;SDS011;4679;47.966;7.958;2022-08-16T13:20:38;2.90;;;1.40;;
9280;SDS011;4679;47.966;7.958;2022-08-16T13:22:41;2.67;;;1.40;;
9280;SDS011;4679;47.966;7.958;2022-08-16T13:24:44;2.85;;;1.20;;
9280;SDS011;4679;47.966;7.958;2022-08-16T13:26:46;1.98;;;1.20;;
9280;SDS011;4679;47.966;7.958;2022-08-16T13:28:48;2.30;;;1.50;;
9280;SDS011;4679;47.966;7.958;2022-08-16T13:30:50;1.10;;;1.10;;
9280;SDS011;4679;47.966;7.958;2022-08-16T13:32:55;2.05;;;1.30;;
9280;SDS011;4679;47.966;7.958;2022-08-16T13:34:57;2.38;;;1.60;;
9280;SDS011;4679;47.966;7.958;2022-08-16T13:36:59;1.50;;;1.40;;
9280;SDS011;4679;47.966;7.958;2022-08-16T13:39:02;1.40;;;1.30;;
9280;SDS011;4679;47.966;7.958;2022-08-16T13:41:05;1.30;;;1.20;;
9280;SDS011;4679;47.966;7.958;2022-08-16T13:43:09;1.50;;;1.23;;
9280;SDS011;4679;47.966;7.958;2022-08-16T13:45:11;1.52;;;1.42;;
9280;SDS011;4679;47.966;7.958;2022-08-16T13:47:14;1.55;;;1.42;;
9280;SDS011;4679;47.966;7.958;2022-08-16T13:49:17;1.27;;;1.17;;
9280;SDS011;4679;47.966;7.958;2022-08-16T13:51:19;1.70;;;1.60;;
9280;SDS011;4679;47.966;7.958;2022-08-16T13:53:23;1.90;;;1.50;;
9280;SDS011;4679;47.966;7.958;2022-08-16T13:55:27;2.72;;;1.40;;
9280;SDS011;4679;47.966;7.958;2022-08-16T13:57:30;1.40;;;1.30;;
9280;SDS011;4679;47.966;7.958;2022-08-16T13:59:32;2.70;;;1.42;;
9280;SDS011;4679;47.966;7.958;2022-08-16T14:01:33;1.65;;;1.55;;
9280;SDS011;4679;47.966;7.958;2022-08-16T14:03:36;1.50;;;1.40;;
9280;SDS011;4679;47.966;7.958;2022-08-16T14:05:40;3.45;;;1.55;;
9280;SDS011;4679;47.966;7.958;2022-08-16T14:07:42;4.35;;;1.40;;
9280;SDS011;4679;47.966;7.958;2022-08-16T14:09:44;2.90;;;1.20;;
9280;SDS011;4679;47.966;7.958;2022-08-16T14:11:46;1.60;;;1.50;;
9280;SDS011;4679;47.966;7.958;2022-08-16T14:13:48;1.70;;;1.40;;
9280;SDS011;4679;47.966;7.958;2022-08-16T14:15:49;2.33;;;1.30;;
9280;SDS011;4679;47.966;7.958;2022-08-16T14:17:51;2.70;;;1.48;;
9280;SDS011;4679;47.966;7.958;2022-08-16T14:19:53;2.20;;;1.40;;
9280;SDS011;4679;47.966;7.958;2022-08-16T14:21:57;4.10;;;1.60;;
9280;SDS011;4679;47.966;7.958;2022-08-16T14:24:02;1.75;;;1.20;;
9280;SDS011;4679;47.966;7.958;2022-08-16T14:26:05;2.10;;;1.30;;
9280;SDS011;4679;47.966;7.958;2022-08-16T14:28:07;1.65;;;1.40;;
9280;SDS011;4679;47.966;7.958;2022-08-16T14:30:11;2.17;;;1.40;;
9280;SDS011;4679;47.966;7.958;2022-08-16T14:32:16;1.45;;;1.35;;
9280;SDS011;4679;47.966;7.958;2022-08-16T14:34:18;1.55;;;1.27;;
9280;SDS011;4679;47.966;7.958;2022-08-16T14:36:20;2.25;;;1.50;;
9280;SDS011;4679;47.966;7.958;2022-08-16T14:38:23;1.80;;;1.33;;
9280;SDS011;4679;47.966;7.958;2022-08-16T14:40:25;1.42;;;1.33;;
9280;SDS011;4679;47.966;7.958;2022-08-16T14:42:28;1.50;;;1.40;;
9280;SDS011;4679;47.966;7.958;2022-08-16T14:44:31;2.88;;;1.50;;
9280;SDS011;4679;47.966;7.958;2022-08-16T14:46:32;1.40;;;1.30;;
9280;SDS011;4679;47.966;7.958;2022-08-16T14:48:34;1.60;;;1.50;;
9280;SDS011;4679;47.966;7.958;2022-08-16T14:50:37;2.35;;;1.50;;
9280;SDS011;4679;47.966;7.958;2022-08-16T14:52:39;1.60;;;1.50;;
9280;SDS011;4679;47.966;7.958;2022-08-16T14:54:44;2.40;;;1.70;;
9280;SDS011;4679;47.966;7.958;2022-08-16T14:56:47;1.58;;;1.30;;
9280;SDS011;4679;47.966;7.958;2022-08-16T14:58:49;4.53;;;1.63;;
9280;SDS011;4679;47.966;7.958;2022-08-16T15:00:51;1.73;;;1.35;;
9280;SDS011;4679;47.966;7.958;2022-08-16T15:02:54;1.40;;;1.30;;
9280;SDS011;4679;47.966;7.958;2022-08-16T15:04:57;3.45;;;1.33;;
9280;SDS011;4679;47.966;7.958;2022-08-16T15:06:59;1.77;;;1.67;;
9280;SDS011;4679;47.966;7.958;2022-08-16T15:09:01;2.15;;;1.50;;
9280;SDS011;4679;47.966;7.958;2022-08-16T15:11:04;1.42;;;1.35;;
9280;SDS011;4679;47.966;7.958;2022-08-16T15:13:06;2.45;;;1.30;;
9280;SDS011;4679;47.966;7.958;2022-08-16T15:15:11;2.08;;;1.20;;
9280;SDS011;4679;47.966;7.958;2022-08-16T15:17:14;2.40;;;1.40;;
9280;SDS011;4679;47.966;7.958;2022-08-16T15:19:16;1.40;;;1.30;;
9280;SDS011;4679;47.966;7.958;2022-08-16T15:21:18;1.58;;;1.40;;
9280;SDS011;4679;47.966;7.958;2022-08-16T15:23:20;1.75;;;1.35;;
9280;SDS011;4679;47.966;7.958;2022-08-16T15:25:25;2.47;;;1.40;;
9280;SDS011;4679;47.966;7.958;2022-08-16T15:27:31;2.72;;;1.40;;
9280;SDS011;4679;47.966;7.958;2022-08-16T15:29:35;1.20;;;1.20;;
9280;SDS011;4679;47.966;7.958;2022-08-16T15:31:37;1.80;;;1.25;;
9280;SDS011;4679;47.966;7.958;2022-08-16T15:33:41;1.55;;;1.30;;
9280;SDS011;4679;47.966;7.958;2022-08-16T15:35:46;1.92;;;1.58;;
9280;SDS011;4679;47.966;7.958;2022-08-16T15:37:49;1.80;;;1.30;;
9280;SDS011;4679;47.966;7.958;2022-08-16T15:39:53;2.90;;;1.48;;
9280;SDS011;4679;47.966;7.958;2022-08-16T15:41:59;1.80;;;1.70;;
9280;SDS011;4679;47.966;7.958;2022-08-16T15:44:04;2.17;;;1.25;;
9280;SDS011;4679;47.966;7.958;2022-08-16T15:46:07;2.83;;;1.40;;
9280;SDS011;4679;47.966;7.958;2022-08-16T15:48:24;1.30;;;1.20;;
9280;SDS011;4679;47.966;7.958;2022-08-16T15:50:29;1.95;;;1.30;;
9280;SDS011;4679;47.966;7.958;2022-08-16T15:52:32;1.48;;;1.38;;
9280;SDS011;4679;47.966;7.958;2022-08-16T15:54:36;1.33;;;1.23;;
9280;SDS011;4679;47.966;7.958;2022-08-16T15:56:38;1.75;;;1.40;;
9280;SDS011;4679;47.966;7.958;2022-08-16T15:58:40;1.67;;;1.25;;
9280;SDS011;4679;47.966;7.958;2022-08-16T16:00:43;1.27;;;1.13;;
9280;SDS011;4679;47.966;7.958;2022-08-16T16:02:45;1.30;;;1.20;;
9280;SDS011;4679;47.966;7.958;2022-08-16T16:04:47;1.00;;;1.00;;
9280;SDS011;4679;47.966;7.958;2022-08-16T16:06:49;2.45;;;1.50;;
9280;SDS011;4679;47.966;7.958;2022-08-16T16:08:51;1.40;;;1.30;;
9280;SDS011;4679;47.966;7.958;2022-08-16T16:10:53;1.95;;;1.33;;
9280;SDS011;4679;47.966;7.958;2022-08-16T16:12:58;1.10;;;1.10;;
9280;SDS011;4679;47.966;7.958;2022-08-16T16:15:03;3.00;;;1.23;;
9280;SDS011;4679;47.966;7.958;2022-08-16T16:17:06;1.30;;;1.20;;
9280;SDS011;4679;47.966;7.958;2022-08-16T16:19:08;1.38;;;1.10;;
9280;SDS011;4679;47.966;7.958;2022-08-16T16:21:10;1.40;;;1.30;;
9280;SDS011;4679;47.966;7.958;2022-08-16T16:23:13;2.13;;;1.20;;
9280;SDS011;4679;47.966;7.958;2022-08-16T16:25:17;1.95;;;1.17;;
9280;SDS011;4679;47.966;7.958;2022-08-16T16:27:19;1.40;;;1.30;;
9280;SDS011;4679;47.966;7.958;2022-08-16T16:29:21;2.72;;;1.13;;
9280;SDS011;4679;47.966;7.958;2022-08-16T16:31:23;0.93;;;0.93;;
9280;SDS011;4679;47.966;7.958;2022-08-16T16:33:28;1.20;;;1.10;;
9280;SDS011;4679;47.966;7.958;2022-08-16T16:35:33;2.08;;;1.20;;
9280;SDS011;4679;47.966;7.958;2022-08-16T16:37:35;1.30;;;1.17;;
9280;SDS011;4679;47.966;7.958;2022-08-16T16:39:38;3.42;;;1.77;;
9280;SDS011;4679;47.966;7.958;2022-08-16T16:41:41;1.20;;;1.10;;
9280;SDS011;4679;47.966;7.958;2022-08-16T16:43:43;1.30;;;1.20;;
9280;SDS011;4679;47.966;7.958;2022-08-16T16:45:45;1.40;;;1.30;;
9280;SDS011;4679;47.966;7.958;2022-08-16T16:47:47;1.13;;;1.10;;
9280;SDS011;4679;47.966;7.958;2022-08-16T16:49:50;1.30;;;1.20;;
9280;SDS011;4679;47.966;7.958;2022-08-16T16:51:52;1.23;;;1.23;;
9280;SDS011;4679;47.966;7.958;2022-08-16T16:53:54;2.25;;;1.27;;
9280;SDS011;4679;47.966;7.958;2022-08-16T16:55:56;2.35;;;1.15;;
9280;SDS011;4679;47.966;7.958;2022-08-16T16:57:58;1.38;;;1.20;;
9280;SDS011;4679;47.966;7.958;2022-08-16T17:00:18;2.75;;;1.08;;
9280;SDS011;4679;47.966;7.958;2022-08-16T17:02:20;1.95;;;1.20;;
9280;SDS011;4679;47.966;7.958;2022-08-16T17:04:22;2.20;;;1.13;;
9280;SDS011;4679;47.966;7.958;2022-08-16T17:06:29;4.18;;;1.50;;
9280;SDS011;4679;47.966;7.958;2022-08-16T17:08:31;2.13;;;1.08;;
9280;SDS011;4679;47.966;7.958;2022-08-16T17:10:34;1.80;;;1.10;;
9280;SDS011;4679;47.966;7.958;2022-08-16T17:12:36;1.60;;;1.48;;
9280;SDS011;4679;47.966;7.958;2022-08-16T17:14:38;2.03;;;1.40;;
9280;SDS011;4679;47.966;7.958;2022-08-16T17:16:39;1.35;;;1.25;;
9280;SDS011;4679;47.966;7.958;2022-08-16T17:18:41;2.90;;;1.20;;
9280;SDS011;4679;47.966;7.958;2022-08-16T17:20:43;1.30;;;1.27;;
9280;SDS011;4679;47.966;7.958;2022-08-16T17:22:47;2.15;;;1.15;;
9280;SDS011;4679;47.966;7.958;2022-08-16T17:24:50;2.90;;;1.13;;
9280;SDS011;4679;47.966;7.958;2022-08-16T17:26:53;1.38;;;1.30;;
9280;SDS011;4679;47.966;7.958;2022-08-16T17:28:54;2.05;;;1.23;;
9280;SDS011;4679;47.966;7.958;2022-08-16T17:30:56;1.40;;;1.30;;
9280;SDS011;4679;47.966;7.958;2022-08-16T17:32:59;2.03;;;1.30;;
9280;SDS011;4679;47.966;7.958;2022-08-16T17:35:03;1.10;;;1.10;;
9280;SDS011;4679;47.966;7.958;2022-08-16T17:37:06;2.30;;;1.30;;
9280;SDS011;4679;47.966;7.958;2022-08-16T17:39:09;1.30;;;1.20;;
9280;SDS011;4679;47.966;7.958;2022-08-16T17:41:11;2.67;;;1.40;;
9280;SDS011;4679;47.966;7.958;2022-08-16T17:43:15;1.00;;;1.00;;
9280;SDS011;4679;47.966;7.958;2022-08-16T17:45:21;1.17;;;1.13;;
9280;SDS011;4679;47.966;7.958;2022-08-16T17:47:24;3.80;;;1.35;;
9280;SDS011;4679;47.966;7.958;2022-08-16T17:49:25;2.88;;;1.23;;
9280;SDS011;4679;47.966;7.958;2022-08-16T17:51:27;1.40;;;1.30;;
9280;SDS011;4679;47.966;7.958;2022-08-16T17:53:29;2.22;;;1.40;;
9280;SDS011;4679;47.966;7.958;2022-08-16T17:55:34;1.38;;;1.35;;
9280;SDS011;4679;47.966;7.958;2022-08-16T17:57:37;2.05;;;1.80;;
9280;SDS011;4679;47.966;7.958;2022-08-16T17:59:40;1.63;;;1.50;;
9280;SDS011;4679;47.966;7.958;2022-08-16T18:01:42;1.65;;;1.48;;
9280;SDS011;4679;47.966;7.958;2022-08-16T18:03:44;1.70;;;1.60;;
9280;SDS011;4679;47.966;7.958;2022-08-16T18:05:46;3.80;;;1.63;;
9280;SDS011;4679;47.966;7.958;2022-08-16T18:09:52;1.85;;;1.50;;
9280;SDS011;4679;47.966;7.958;2022-08-16T18:11:55;3.08;;;1.38;;
9280;SDS011;4679;47.966;7.958;2022-08-16T18:13:57;1.77;;;1.67;;
9280;SDS011;4679;47.966;7.958;2022-08-16T18:15:59;1.52;;;1.42;;
9280;SDS011;4679;47.966;7.958;2022-08-16T18:18:01;4.00;;;1.73;;
9280;SDS011;4679;47.966;7.958;2022-08-16T18:20:03;1.60;;;1.50;;
9280;SDS011;4679;47.966;7.958;2022-08-16T18:22:07;2.08;;;1.60;;
9280;SDS011;4679;47.966;7.958;2022-08-16T18:24:19;2.30;;;1.70;;
9280;SDS011;4679;47.966;7.958;2022-08-16T18:26:22;1.63;;;1.50;;
9280;SDS011;4679;47.966;7.958;2022-08-16T18:28:25;2.08;;;1.88;;
9280;SDS011;4679;47.966;7.958;2022-08-16T18:30:28;1.73;;;1.50;;
9280;SDS011;4679;47.966;7.958;2022-08-16T18:32:29;2.35;;;1.48;;
9280;SDS011;4679;47.966;7.958;2022-08-16T18:34:31;2.40;;;1.55;;
9280;SDS011;4679;47.966;7.958;2022-08-16T18:36:33;2.25;;;1.60;;
9280;SDS011;4679;47.966;7.958;2022-08-16T18:38:36;1.50;;;1.40;;